Time;durP1;ratioP1;P1;durP2;ratioP2;P2;SDS_P1;SDS_P2;PMS_P1;PMS_P2;Temp;Humidity;BMP_temperature;BMP_pressure;BME280_temperature;BME280_humidity;BME280_pressure;Samples;Min_cycle;Max_cycle;Signal;HPM_P1;HPM_P2
2022/03/02 00:01:16;;;;;;;38.80;21.00;;;;;;;-145.18;100.00;46744.38;4929318;29;20111;-61
2022/03/02 00:03:42;;;;;;;34.20;20.60;;;;;;;-145.18;100.00;46722.91;4893423;29;1071578;-61
2022/03/02 00:06:09;;;;;;;37.47;20.60;;;;;;;-145.18;100.00;46750.25;4929848;29;20707;-60
2022/03/02 00:08:35;;;;;;;38.13;20.87;;;;;;;-145.18;100.00;46761.97;4930460;29;20281;-60
2022/03/02 00:11:00;;;;;;;40.23;20.23;;;;;;;-145.18;100.00;46765.88;4930733;29;22872;-60
2022/03/02 00:13:26;;;;;;;38.30;21.67;;;;;;;-145.18;100.00;46740.47;4930076;29;20337;-60
2022/03/02 00:15:51;;;;;;;37.33;20.53;;;;;;;-145.18;100.00;46720.94;4930501;29;20488;-60
2022/03/02 00:18:17;;;;;;;38.30;21.00;;;;;;;-145.18;100.00;46724.84;4929766;29;20048;-60
2022/03/02 00:20:42;;;;;;;46.67;20.93;;;;;;;-145.18;100.00;46754.16;4931216;29;20048;-60
2022/03/02 00:23:07;;;;;;;36.37;21.03;;;;;;;-145.18;100.00;46785.41;4930370;29;20131;-60
2022/03/02 00:25:33;;;;;;;39.07;20.87;;;;;;;-145.18;100.00;46787.38;4930033;29;20046;-60
2022/03/02 00:27:59;;;;;;;36.57;20.30;;;;;;;-145.18;100.00;46783.47;4930040;29;20386;-61
2022/03/02 00:30:28;;;;;;;37.80;21.07;;;;;;;-145.18;100.00;46779.56;4930345;29;20464;-60
2022/03/02 00:32:54;;;;;;;35.80;20.70;;;;;;;-145.18;100.00;46742.44;4930154;29;20040;-60
2022/03/02 00:35:19;;;;;;;40.40;21.90;;;;;;;-145.18;100.00;46732.66;4929998;29;20316;-60
2022/03/02 00:37:44;;;;;;;36.93;21.03;;;;;;;-145.18;100.00;46744.38;4913713;29;20488;-60
2022/03/02 00:40:10;;;;;;;35.97;21.20;;;;;;;-145.18;100.00;46793.22;4930052;29;20047;-60
2022/03/02 00:42:35;;;;;;;41.60;20.50;;;;;;;-145.18;100.00;46781.50;4929791;29;20527;-60
2022/03/02 00:45:02;;;;;;;36.10;19.73;;;;;;;-145.18;100.00;46812.75;4930369;29;20043;-61
2022/03/02 00:47:27;;;;;;;41.17;22.10;;;;;;;-145.18;100.00;46799.09;4912705;29;20457;-61
2022/03/02 00:49:53;;;;;;;38.37;20.97;;;;;;;-145.18;100.00;46797.13;4930176;29;20254;-61
2022/03/02 00:52:18;;;;;;;38.17;20.87;;;;;;;-145.18;100.00;46789.31;4930297;29;20413;-60
2022/03/02 00:54:44;;;;;;;38.13;20.53;;;;;;;-145.18;100.00;46761.97;4930163;29;20491;-60
2022/03/02 00:57:09;;;;;;;40.27;21.60;;;;;;;-145.18;100.00;46734.63;4933548;29;20040;-60
2022/03/02 00:59:35;;;;;;;40.53;21.93;;;;;;;-145.18;100.00;46742.44;4934221;29;20043;-60
2022/03/02 01:02:00;;;;;;;41.93;21.13;;;;;;;-145.18;100.00;46715.09;4933673;29;20040;-61
2022/03/02 01:04:26;;;;;;;37.70;22.47;;;;;;;-145.18;100.00;46699.47;4933825;29;20051;-61
2022/03/02 01:06:51;;;;;;;39.27;21.43;;;;;;;-145.18;100.00;46748.28;4934646;29;20108;-61
2022/03/02 01:09:17;;;;;;;36.80;20.63;;;;;;;-145.18;100.00;46777.59;4934275;29;20043;-61
2022/03/02 01:11:42;;;;;;;36.57;21.07;;;;;;;-145.18;100.00;46791.28;4933966;29;20137;-61
2022/03/02 01:14:08;;;;;;;41.30;21.07;;;;;;;-145.18;100.00;46804.94;4934506;29;20043;-60
2022/03/02 01:16:33;;;;;;;39.10;20.90;;;;;;;-145.18;100.00;46777.59;4933882;29;20043;-61
2022/03/02 01:18:59;;;;;;;42.00;22.57;;;;;;;-145.18;100.00;46818.63;4917080;29;20046;-61
2022/03/02 01:21:24;;;;;;;45.20;22.23;;;;;;;-145.18;100.00;46828.38;4934552;29;20039;-61
2022/03/02 01:23:53;;;;;;;39.20;21.40;;;;;;;-145.18;100.00;46836.19;4934133;29;20069;-60
2022/03/02 01:26:21;;;;;;;44.07;21.50;;;;;;;-145.18;100.00;46845.97;4933846;29;20199;-61
2022/03/02 01:28:46;;;;;;;38.53;20.53;;;;;;;-145.18;100.00;46844.00;4933828;29;20258;-61
2022/03/02 01:31:11;;;;;;;37.20;21.80;;;;;;;-145.18;100.00;46849.88;4933940;29;20276;-61
2022/03/02 01:33:37;;;;;;;38.37;20.47;;;;;;;-145.18;100.00;46836.19;4933543;29;20187;-61
2022/03/02 01:36:02;;;;;;;39.03;21.50;;;;;;;-145.18;100.00;46863.53;4933965;29;20047;-61
2022/03/02 01:38:28;;;;;;;41.03;22.37;;;;;;;-145.18;100.00;46824.47;4933970;29;20118;-61
2022/03/02 01:40:53;;;;;;;39.63;22.03;;;;;;;-145.18;100.00;46820.56;4933893;29;20075;-61
2022/03/02 01:43:18;;;;;;;44.93;22.83;;;;;;;-145.18;100.00;46820.56;4933397;29;20044;-60
2022/03/02 01:45:44;;;;;;;40.67;22.00;;;;;;;-145.18;100.00;46828.38;4933525;29;20492;-60
2022/03/02 01:48:09;;;;;;;38.83;21.63;;;;;;;-145.18;100.00;46803.00;4933490;29;20453;-61
2022/03/02 01:50:34;;;;;;;50.10;21.20;;;;;;;-145.18;100.00;46797.13;4934052;29;20036;-60
2022/03/02 01:53:00;;;;;;;38.10;20.30;;;;;;;-145.18;100.00;46834.25;4933644;29;20039;-60
2022/03/02 01:55:26;;;;;;;40.23;22.30;;;;;;;-145.18;100.00;46840.09;4933362;29;20075;-61
2022/03/02 01:57:51;;;;;;;40.20;21.67;;;;;;;-145.18;100.00;46879.19;4933058;29;20691;-61
2022/03/02 02:00:21;;;;;;;36.63;21.00;;;;;;;-145.18;100.00;46847.91;4933155;29;20075;-60
2022/03/02 02:02:48;;;;;;;37.23;19.83;;;;;;;-145.18;100.00;46838.16;4932656;29;20134;-61
2022/03/02 02:05:14;;;;;;;37.13;19.53;;;;;;;-145.18;100.00;46830.34;4932948;29;20286;-60
2022/03/02 02:07:41;;;;;;;38.57;20.53;;;;;;;-145.18;100.00;46820.56;4932947;29;20857;-60
2022/03/02 02:10:08;;;;;;;38.87;21.37;;;;;;;-145.18;100.00;46824.47;4933503;29;20420;-61
2022/03/02 02:12:34;;;;;;;38.17;20.73;;;;;;;-145.18;100.00;46816.66;4932527;29;20488;-60
2022/03/02 02:15:00;;;;;;;36.87;21.53;;;;;;;-145.18;100.00;46830.34;4933364;29;20278;-61
2022/03/02 02:17:26;;;;;;;37.27;22.13;;;;;;;-145.18;100.00;46804.94;4932106;29;20417;-60
2022/03/02 02:19:52;;;;;;;39.80;21.73;;;;;;;-145.18;100.00;46765.88;4916100;29;20309;-61
2022/03/02 02:22:18;;;;;;;37.63;21.70;;;;;;;-145.18;100.00;46769.78;4932384;29;20062;-60
2022/03/02 02:24:43;;;;;;;42.00;22.10;;;;;;;-145.18;100.00;46793.22;4933661;29;20278;-61
2022/03/02 02:27:10;;;;;;;39.70;22.47;;;;;;;-145.18;100.00;46765.88;4932495;29;20625;-60
2022/03/02 02:29:36;;;;;;;38.70;23.07;;;;;;;-145.18;100.00;46763.91;4932406;29;20052;-60
2022/03/02 02:32:03;;;;;;;40.20;23.47;;;;;;;-145.18;100.00;46754.16;4930772;29;20704;-60
2022/03/02 02:34:29;;;;;;;37.90;22.57;;;;;;;-145.18;100.00;46761.97;4932615;29;20338;-61
2022/03/02 02:36:54;;;;;;;43.37;22.53;;;;;;;-145.18;100.00;46734.63;4932269;29;20354;-61
2022/03/02 02:39:20;;;;;;;38.47;21.73;;;;;;;-145.18;100.00;46738.53;4933008;29;20067;-61
2022/03/02 02:41:45;;;;;;;41.00;22.20;;;;;;;-145.18;100.00;46742.44;4932307;29;20048;-60
2022/03/02 02:44:10;;;;;;;40.57;22.33;;;;;;;-145.18;100.00;46720.94;4932673;29;20551;-61
2022/03/02 02:46:41;;;;;;;40.87;21.73;;;;;;;-145.18;100.00;46742.44;4932002;29;20047;-60
2022/03/02 02:49:06;;;;;;;42.53;22.43;;;;;;;-145.18;100.00;46777.59;4915069;29;20043;-61
2022/03/02 02:51:32;;;;;;;40.50;21.53;;;;;;;-145.18;100.00;46748.28;4930674;29;20278;-60
2022/03/02 02:53:58;;;;;;;42.87;22.57;;;;;;;-145.18;100.00;46734.63;4932235;29;20050;-61
2022/03/02 02:56:24;;;;;;;40.57;22.30;;;;;;;-145.18;100.00;46746.34;4916045;29;20100;-61
2022/03/02 02:58:49;;;;;;;42.93;23.23;;;;;;;-145.18;100.00;46732.66;4931989;29;20704;-61
2022/03/02 03:03:44;;;;;;;48.73;23.80;;;;;;;-145.18;100.00;46713.13;4946347;23;20043;-61
2022/03/02 03:06:10;;;;;;;38.10;22.13;;;;;;;-145.18;100.00;46720.94;4951241;28;20367;-60
2022/03/02 03:08:36;;;;;;;37.87;22.20;;;;;;;-145.18;100.00;46703.38;4950588;28;20416;-59
2022/03/02 03:11:03;;;;;;;42.03;22.77;;;;;;;-145.18;100.00;46742.44;4950756;28;20620;-60
2022/03/02 03:13:29;;;;;;;46.67;22.80;;;;;;;-145.18;100.00;46754.16;4950354;28;20508;-60
2022/03/02 03:15:54;;;;;;;40.17;22.87;;;;;;;-145.18;100.00;46722.91;4950418;28;20354;-61
2022/03/02 03:18:19;;;;;;;41.80;20.63;;;;;;;-145.18;100.00;46697.50;4950285;28;20047;-60
2022/03/02 03:20:45;;;;;;;43.37;23.00;;;;;;;-145.18;100.00;46703.38;4950629;28;20059;-60
2022/03/02 03:23:11;;;;;;;42.57;23.17;;;;;;;-145.18;100.00;46691.66;4950367;28;20105;-60
2022/03/02 03:25:36;;;;;;;38.30;22.50;;;;;;;-145.18;100.00;46695.56;4950578;28;20047;-60
2022/03/02 03:28:03;;;;;;;45.17;21.83;;;;;;;-145.18;100.00;46703.38;4949861;28;20039;-60
2022/03/02 03:30:28;;;;;;;43.53;21.98;;;;;;;-145.18;100.00;46679.94;4950480;28;20411;-60
2022/03/02 03:32:54;;;;;;;46.07;23.27;;;;;;;-145.18;100.00;46668.22;4950471;28;20047;-60
2022/03/02 03:35:22;;;;;;;42.40;22.80;;;;;;;-145.18;100.00;46664.31;4950241;28;20043;-60
2022/03/02 03:37:48;;;;;;;43.80;22.92;;;;;;;-145.18;100.00;46633.06;4949915;28;20058;-60
2022/03/02 03:40:15;;;;;;;44.60;22.87;;;;;;;-145.18;100.00;46617.41;4950209;28;20039;-60
2022/03/02 03:42:41;;;;;;;45.83;24.27;;;;;;;-145.18;100.00;46615.47;4949582;28;20419;-60
2022/03/02 03:45:08;;;;;;;41.67;22.60;;;;;;;-145.18;100.00;46627.19;4950108;28;20038;-61
2022/03/02 03:47:34;;;;;;;46.08;22.98;;;;;;;-145.18;100.00;46625.22;4949501;28;20047;-59
2022/03/02 03:50:00;;;;;;;44.07;23.23;;;;;;;-145.18;100.00;46638.91;4950495;28;20043;-60
2022/03/02 03:52:25;;;;;;;42.87;22.63;;;;;;;-145.18;100.00;46629.13;4932698;29;20539;-60
2022/03/02 03:54:51;;;;;;;46.20;23.17;;;;;;;-145.18;100.00;46650.63;4949957;28;20278;-60
2022/03/02 03:57:16;;;;;;;46.13;23.27;;;;;;;-145.18;100.00;46636.94;4949536;28;20071;-60
2022/03/02 03:59:42;;;;;;;39.80;22.30;;;;;;;-145.18;100.00;46642.81;4950016;28;20043;-60
2022/03/02 04:02:07;;;;;;;42.30;23.60;;;;;;;-145.18;100.00;46633.06;4949084;28;20054;-61
2022/03/02 04:04:32;;;;;;;42.60;22.23;;;;;;;-145.18;100.00;46636.94;4950830;28;20043;-60
2022/03/02 04:06:58;;;;;;;39.60;23.07;;;;;;;-145.18;100.00;46638.91;4949317;28;20054;-60
2022/03/02 04:09:23;;;;;;;45.57;23.70;;;;;;;-145.18;100.00;46627.19;4949871;28;20078;-60
2022/03/02 04:11:49;;;;;;;40.93;22.00;;;;;;;-145.18;100.00;46625.22;4949431;28;20039;-60
2022/03/02 04:14:14;;;;;;;40.17;22.90;;;;;;;-145.18;100.00;46625.22;4949503;28;20047;-60
2022/03/02 04:16:39;;;;;;;39.47;22.13;;;;;;;-145.18;100.00;46638.91;4949583;28;20471;-60
2022/03/02 04:19:05;;;;;;;39.93;22.20;;;;;;;-145.18;100.00;46629.13;4949640;28;20094;-60
2022/03/02 04:21:31;;;;;;;46.73;22.93;;;;;;;-145.18;100.00;46640.88;4949697;28;20046;-60
2022/03/02 04:23:56;;;;;;;45.83;23.52;;;;;;;-145.18;100.00;46621.31;4949292;28;20044;-61
2022/03/02 04:26:22;;;;;;;42.20;22.40;;;;;;;-145.18;100.00;46617.41;4949762;28;20047;-60
2022/03/02 04:28:47;;;;;;;43.53;23.00;;;;;;;-145.18;100.00;46623.28;4949138;28;20035;-60
2022/03/02 04:31:13;;;;;;;47.93;23.00;;;;;;;-145.18;100.00;46636.94;4949387;28;20047;-60
2022/03/02 04:33:38;;;;;;;43.93;24.13;;;;;;;-145.18;100.00;46627.19;4949972;28;20697;-60
2022/03/02 04:36:05;;;;;;;43.10;23.43;;;;;;;-145.18;100.00;46638.91;4948190;28;20122;-60
2022/03/02 04:38:30;;;;;;;43.67;22.77;;;;;;;-145.18;100.00;46621.31;4948864;28;20515;-60
2022/03/02 04:40:56;;;;;;;41.30;23.90;;;;;;;-145.18;100.00;46623.28;4949028;28;20047;-60
2022/03/02 04:43:21;;;;;;;39.50;23.27;;;;;;;-145.18;100.00;46619.38;4949005;28;20066;-60
2022/03/02 04:45:47;;;;;;;45.33;24.90;;;;;;;-145.18;100.00;46619.38;4949640;28;20053;-61
2022/03/02 04:48:12;;;;;;;47.23;25.27;;;;;;;-145.18;100.00;46611.56;4949807;28;20109;-60
2022/03/02 04:50:38;;;;;;;42.10;23.67;;;;;;;-145.18;100.00;46652.59;4949403;28;20051;-60
2022/03/02 04:53:04;;;;;;;43.00;23.77;;;;;;;-145.18;100.00;46638.91;4948538;28;20039;-61
2022/03/02 04:55:30;;;;;;;42.17;22.60;;;;;;;-145.18;100.00;46635.00;4949641;28;20539;-60
2022/03/02 04:57:58;;;;;;;44.08;24.92;;;;;;;-145.18;100.00;46656.50;4948638;28;20043;-60
2022/03/02 05:00:26;;;;;;;44.57;24.10;;;;;;;-145.18;100.00;46652.59;4949376;28;20046;-60
2022/03/02 05:02:53;;;;;;;51.85;24.70;;;;;;;-145.18;100.00;46636.94;4948453;28;20301;-61
2022/03/02 05:05:21;;;;;;;47.35;25.08;;;;;;;-145.18;100.00;46617.41;4949776;28;20051;-60
2022/03/02 05:07:47;;;;;;;49.10;23.10;;;;;;;-145.18;100.00;46642.81;4931698;28;20564;-60
2022/03/02 05:10:14;;;;;;;47.27;24.93;;;;;;;-145.18;100.00;46658.44;4949362;28;20123;-60
2022/03/02 05:12:39;;;;;;;40.83;22.27;;;;;;;-145.18;100.00;46658.44;4948942;28;20043;-60
2022/03/02 05:15:07;;;;;;;40.77;23.23;;;;;;;-145.18;100.00;46650.63;4949025;28;20050;-60
2022/03/02 05:17:32;;;;;;;42.65;24.00;;;;;;;-145.18;100.00;46638.91;4948460;28;20046;-60
2022/03/02 05:19:58;;;;;;;43.70;22.80;;;;;;;-145.18;100.00;46619.38;4948699;28;20047;-60
2022/03/02 05:22:23;;;;;;;40.30;21.87;;;;;;;-145.18;100.00;46627.19;4949467;28;20047;-60
2022/03/02 05:24:48;;;;;;;44.80;23.33;;;;;;;-145.18;100.00;46635.00;4949032;28;20146;-59
2022/03/02 05:27:14;;;;;;;46.43;25.07;;;;;;;-145.18;100.00;46642.81;4948550;28;20091;-60
2022/03/02 05:29:39;;;;;;;43.63;24.53;;;;;;;-145.18;100.00;46640.88;4949089;28;20047;-60
2022/03/02 05:32:05;;;;;;;45.73;23.93;;;;;;;-145.18;100.00;46650.63;4948637;28;20055;-60
2022/03/02 05:34:31;;;;;;;44.30;23.90;;;;;;;-145.18;100.00;46640.88;4948768;28;20051;-61
2022/03/02 05:36:56;;;;;;;43.00;23.83;;;;;;;-145.18;100.00;46642.81;4932414;29;20051;-60
2022/03/02 05:39:25;;;;;;;46.47;23.37;;;;;;;-145.18;100.00;46654.53;4948729;28;20416;-60
2022/03/02 05:41:51;;;;;;;43.58;23.80;;;;;;;-145.18;100.00;46642.81;4950307;28;20097;-60
2022/03/02 05:44:17;;;;;;;42.07;22.27;;;;;;;-145.18;100.00;46638.91;4952096;28;20134;-60
2022/03/02 05:46:43;;;;;;;41.87;22.87;;;;;;;-145.18;100.00;46658.44;4952496;28;20499;-61
2022/03/02 05:49:08;;;;;;;45.73;24.43;;;;;;;-145.18;100.00;46652.59;4951622;28;20475;-61
2022/03/02 05:51:34;;;;;;;45.70;25.43;;;;;;;-145.18;100.00;46650.63;4951924;28;20139;-60
2022/03/02 05:54:00;;;;;;;43.00;21.93;;;;;;;-145.18;100.00;46654.53;4952461;28;20063;-60
2022/03/02 05:56:25;;;;;;;45.13;24.17;;;;;;;-145.18;100.00;46654.53;4952086;28;20047;-60
2022/03/02 05:58:52;;;;;;;46.13;24.03;;;;;;;-145.18;100.00;46640.88;4951519;28;20039;-60
2022/03/02 06:01:18;;;;;;;45.47;21.38;;;;;;;-145.18;100.00;46640.88;4952091;28;20047;-60
2022/03/02 06:03:44;;;;;;;42.67;22.52;;;;;;;-145.18;100.00;46654.53;4951380;28;20051;-60
2022/03/02 06:06:10;;;;;;;42.80;22.70;;;;;;;-145.18;100.00;46617.41;4951868;28;20043;-61
2022/03/02 06:08:36;;;;;;;44.45;22.33;;;;;;;-145.18;100.00;46621.31;4952247;28;20139;-60
2022/03/02 06:11:02;;;;;;;40.20;22.17;;;;;;;-145.18;100.00;46629.13;4951750;28;20468;-60
2022/03/02 06:13:29;;;;;;;45.53;23.15;;;;;;;-145.18;100.00;46627.19;4951404;28;20035;-60
2022/03/02 06:15:55;;;;;;;39.38;20.27;;;;;;;-145.18;100.00;46633.06;4951659;28;20043;-60
2022/03/02 06:18:21;;;;;;;37.88;20.15;;;;;;;-145.18;100.00;46650.63;4951539;28;20051;-60
2022/03/02 06:20:50;;;;;;;37.63;19.90;;;;;;;-145.18;100.00;46648.69;4951848;28;20070;-61
2022/03/02 06:23:15;;;;;;;36.83;20.80;;;;;;;-145.18;100.00;46666.25;4950911;28;20054;-60
2022/03/02 06:25:41;;;;;;;40.27;20.70;;;;;;;-145.18;100.00;46662.34;4952401;28;20040;-60
2022/03/02 06:28:06;;;;;;;38.27;21.17;;;;;;;-145.18;100.00;46679.94;4951104;28;20055;-60
2022/03/02 06:30:32;;;;;;;40.27;21.00;;;;;;;-145.18;100.00;46668.22;4951790;28;20185;-60
2022/03/02 06:32:58;;;;;;;42.30;21.73;;;;;;;-145.18;100.00;46650.63;4951001;28;20063;-60
2022/03/02 06:35:24;;;;;;;39.15;20.55;;;;;;;-145.18;100.00;46638.91;4951575;28;20141;-60
2022/03/02 06:37:49;;;;;;;44.53;20.30;;;;;;;-145.18;100.00;46652.59;4950989;28;20082;-60
2022/03/02 06:40:15;;;;;;;39.03;19.43;;;;;;;-145.18;100.00;46676.03;4951878;28;20050;-60
2022/03/02 06:43:00;;;;;;;37.33;19.43;;;;;;;-145.18;100.00;46707.28;4933313;28;20043;-60
2022/03/02 06:45:38;;;;;;;39.65;20.27;;;;;;;-145.18;100.00;46683.84;4951558;28;20043;-60
2022/03/02 06:48:13;;;;;;;36.17;18.77;;;;;;;-145.18;100.00;46672.13;4950832;28;20063;-60
2022/03/02 06:50:43;;;;;;;40.67;20.30;;;;;;;-145.18;100.00;46693.59;4951635;28;20122;-60
2022/03/02 06:53:14;;;;;;;37.30;20.17;;;;;;;-145.18;100.00;46732.66;4949203;28;20488;-60
2022/03/02 06:55:42;;;;;;;36.53;18.95;;;;;;;-145.18;100.00;46730.72;4934039;29;20039;-60
2022/03/02 06:58:10;;;;;;;35.85;19.05;;;;;;;-145.18;100.00;46720.94;4950505;28;20051;-60
2022/03/02 07:00:36;;;;;;;41.53;20.38;;;;;;;-145.18;100.00;46724.84;4951245;28;20106;-59
2022/03/02 07:03:09;;;;;;;42.17;20.02;;;;;;;-145.18;100.00;46736.56;4950192;28;20511;-60
2022/03/02 07:05:36;;;;;;;38.47;18.83;;;;;;;-145.18;100.00;46767.84;4951343;28;20043;-60
2022/03/02 07:08:03;;;;;;;41.28;19.02;;;;;;;-145.18;100.00;46801.03;4950136;28;20035;-61
2022/03/02 07:10:33;;;;;;;38.90;20.30;;;;;;;-145.18;100.00;46812.75;4951060;28;20085;-60
2022/03/02 07:13:01;;;;;;;39.42;19.80;;;;;;;-145.18;100.00;46826.44;4950457;28;20035;-60
2022/03/02 07:15:31;;;;;;;37.17;19.55;;;;;;;-145.18;100.00;46779.56;4950890;28;20043;-60
2022/03/02 07:17:59;;;;;;;41.40;21.13;;;;;;;-145.18;100.00;46746.34;4950140;28;20043;-60
2022/03/02 07:20:27;;;;;;;43.20;21.85;;;;;;;-145.18;100.00;46732.66;4950899;28;20074;-60
2022/03/02 07:22:53;;;;;;;43.00;21.88;;;;;;;-145.18;100.00;46717.03;4950024;28;20054;-61
2022/03/02 07:25:21;;;;;;;40.97;21.60;;;;;;;-145.18;100.00;46709.22;4934021;29;20067;-61
2022/03/02 07:27:47;;;;;;;40.08;22.13;;;;;;;-145.18;100.00;46719.00;4949983;28;20498;-60
2022/03/02 07:30:12;;;;;;;43.10;21.83;;;;;;;-145.18;100.00;46736.56;4950402;28;20094;-61
2022/03/02 07:32:41;;;;;;;43.63;22.80;;;;;;;-145.18;100.00;46719.00;4950264;28;20039;-61
2022/03/02 07:35:07;;;;;;;41.08;23.15;;;;;;;-145.18;100.00;46703.38;4950492;28;20063;-60
2022/03/02 07:37:33;;;;;;;41.92;23.30;;;;;;;-145.18;100.00;46703.38;4949714;28;20039;-60
2022/03/02 07:39:59;;;;;;;43.23;22.87;;;;;;;-145.18;100.00;46758.06;4950014;28;20043;-61
2022/03/02 07:42:25;;;;;;;42.70;22.07;;;;;;;-145.18;100.00;46779.56;4951007;28;20043;-60
2022/03/02 07:44:51;;;;;;;37.00;20.17;;;;;;;-145.18;100.00;46849.88;4949766;28;20040;-60
2022/03/02 07:47:18;;;;;;;35.43;20.17;;;;;;;-145.18;100.00;46887.00;4950195;28;20285;-60
2022/03/02 07:49:45;;;;;;;37.17;20.47;;;;;;;-145.18;100.00;46972.94;4949777;28;20290;-60
2022/03/02 07:52:10;;;;;;;37.03;20.10;;;;;;;-145.18;100.00;47072.56;4949921;28;20758;-60
2022/03/02 07:54:37;;;;;;;39.07;18.53;;;;;;;-145.18;100.00;47408.59;4949595;28;20369;-61
2022/03/02 07:57:05;;;;;;;32.00;17.80;;;;;;;-145.18;100.00;47465.25;4949477;28;20044;-60
2022/03/02 07:59:39;;;;;;;38.30;19.30;;;;;;;-145.18;100.00;47580.53;4949680;28;20281;-61
2022/03/02 08:02:07;;;;;;;33.73;15.93;;;;;;;-145.18;100.00;47533.63;4949371;28;20270;-60
2022/03/02 08:04:34;;;;;;;30.57;15.40;;;;;;;-145.18;100.00;47519.97;4948799;28;20274;-61
2022/03/02 08:06:59;;;;;;;31.10;14.30;;;;;;;-145.18;100.00;47525.81;4950416;28;20286;-60
2022/03/02 08:09:25;;;;;;;25.97;13.93;;;;;;;-145.18;100.00;47527.78;4949329;28;20344;-60
2022/03/02 08:11:50;;;;;;;30.03;14.67;;;;;;;-145.18;100.00;47502.38;4949818;28;20570;-60
2022/03/02 08:14:21;;;;;;;27.23;15.27;;;;;;;-145.18;100.00;47523.88;4949588;28;20055;-59
2022/03/02 08:16:47;;;;;;;28.80;14.13;;;;;;;-145.18;100.00;47521.91;4950017;28;20443;-60
2022/03/02 08:19:13;;;;;;;27.20;14.57;;;;;;;-145.18;100.00;47500.41;4948896;28;20304;-60
2022/03/02 08:21:42;;;;;;;27.83;14.50;;;;;;;-145.18;100.00;47518.00;4949483;28;20758;-60
2022/03/02 08:24:09;;;;;;;28.47;14.97;;;;;;;-145.18;100.00;47504.31;4949114;28;20043;-60
2022/03/02 08:26:38;;;;;;;26.23;14.37;;;;;;;-145.18;100.00;47519.97;4950240;28;20350;-60
2022/03/02 08:29:10;;;;;;;29.63;15.90;;;;;;;-145.18;100.00;47492.59;4948861;28;20276;-60
2022/03/02 08:31:37;;;;;;;26.67;13.20;;;;;;;-145.18;100.00;47502.38;4949455;28;20638;-60
2022/03/02 08:34:04;;;;;;;25.33;13.33;;;;;;;-145.18;100.00;47504.31;4949071;28;20348;-60
2022/03/02 08:36:34;;;;;;;31.17;14.07;;;;;;;-145.18;100.00;47508.22;4949132;28;20465;-60
2022/03/02 08:39:08;;;;;;;25.53;12.03;;;;;;;-145.18;100.00;47476.97;4948574;28;20288;-60
2022/03/02 08:41:34;;;;;;;24.80;13.23;;;;;;;-145.18;100.00;47488.69;4949470;28;20372;-60
2022/03/02 08:44:00;;;;;;;26.37;13.77;;;;;;;-145.18;100.00;47492.59;4949070;28;20273;-60
2022/03/02 08:46:26;;;;;;;26.33;13.80;;;;;;;-145.18;100.00;47480.88;4949167;28;20300;-60
2022/03/02 08:48:53;;;;;;;25.30;12.63;;;;;;;-145.18;100.00;47484.78;4948795;28;20054;-60
2022/03/02 08:51:22;;;;;;;26.57;13.03;;;;;;;-145.18;100.00;47478.94;4949243;28;20331;-60
2022/03/02 08:53:49;;;;;;;24.67;13.43;;;;;;;-145.18;100.00;47484.78;4949709;28;20274;-60
2022/03/02 08:56:16;;;;;;;22.20;12.00;;;;;;;-145.18;100.00;47461.34;4949315;28;20377;-60
2022/03/02 08:58:42;;;;;;;25.33;12.93;;;;;;;-145.18;100.00;47451.56;4948622;28;21147;-60
2022/03/02 09:01:11;;;;;;;26.73;13.53;;;;;;;-145.18;100.00;47476.97;4932015;28;20278;-60
2022/03/02 09:03:36;;;;;;;22.00;12.77;;;;;;;-145.18;100.00;47459.41;4948542;28;20293;-60
2022/03/02 09:06:03;;;;;;;23.10;12.97;;;;;;;-145.18;100.00;47451.56;4932090;28;20261;-60
2022/03/02 09:08:30;;;;;;;23.47;12.63;;;;;;;-145.18;100.00;47451.56;4948890;28;20085;-60
2022/03/02 09:10:57;;;;;;;24.90;13.10;;;;;;;-145.18;100.00;47437.91;4948803;28;20782;-61
2022/03/02 09:13:23;;;;;;;22.47;12.07;;;;;;;-145.18;100.00;47437.91;4949530;28;20344;-60
2022/03/02 09:15:48;;;;;;;23.83;12.17;;;;;;;-145.18;100.00;47434.00;4949455;28;20305;-60
2022/03/02 09:18:14;;;;;;;22.27;12.17;;;;;;;-145.18;100.00;47428.13;4935046;28;20344;-60
2022/03/02 09:20:42;;;;;;;20.97;11.60;;;;;;;-145.18;100.00;47414.47;4952976;28;20120;-60
2022/03/02 09:23:07;;;;;;;26.93;13.80;;;;;;;-145.18;100.00;47432.03;4952379;28;20152;-61
2022/03/02 09:25:37;;;;;;;22.93;12.83;;;;;;;-145.18;100.00;47430.09;4952918;28;20750;-60
2022/03/02 09:28:03;;;;;;;24.20;12.40;;;;;;;-145.18;100.00;47435.94;4952047;28;20127;-60
2022/03/02 09:30:29;;;;;;;24.73;12.67;;;;;;;-145.18;100.00;47424.22;4953510;28;20656;-60
2022/03/02 09:32:55;;;;;;;24.30;13.10;;;;;;;-145.18;100.00;47400.78;4952152;28;20043;-61
2022/03/02 09:35:21;;;;;;;25.80;12.27;;;;;;;-145.18;100.00;47408.59;4952372;28;20066;-60
2022/03/02 09:37:53;;;;;;;21.73;12.83;;;;;;;-145.18;100.00;47410.56;4952601;28;20417;-60
2022/03/02 09:40:29;;;;;;;22.40;12.97;;;;;;;-145.18;100.00;47434.00;4935161;28;20615;-60
2022/03/02 09:43:01;;;;;;;22.87;12.70;;;;;;;-145.18;100.00;47414.47;4952067;28;20368;-60
2022/03/02 09:45:29;;;;;;;24.53;12.37;;;;;;;-145.18;100.00;47426.19;4952569;28;20274;-60
2022/03/02 09:48:00;;;;;;;24.73;12.93;;;;;;;-145.18;100.00;47412.50;4952021;28;20265;-60
2022/03/02 09:50:31;;;;;;;23.43;12.43;;;;;;;-145.18;100.00;47410.56;4952445;28;20277;-60
2022/03/02 09:53:12;;;;;;;26.70;11.43;;;;;;;-145.18;100.00;47435.94;4951979;28;20278;-60
2022/03/02 09:55:40;;;;;;;24.63;12.40;;;;;;;-145.18;100.00;47412.50;4952285;28;20360;-60
2022/03/02 09:58:06;;;;;;;22.13;12.63;;;;;;;-145.18;100.00;47408.59;4951757;28;20277;-60
2022/03/02 10:00:32;;;;;;;22.93;12.47;;;;;;;-145.18;100.00;47391.00;4952265;28;20761;-61
2022/03/02 10:02:59;;;;;;;30.23;12.77;;;;;;;-145.18;100.00;47379.28;4951343;28;20289;-60
2022/03/02 10:05:30;;;;;;;22.27;12.20;;;;;;;-145.18;100.00;47402.72;4951780;28;20341;-61
2022/03/02 10:08:08;;;;;;;20.23;12.13;;;;;;;-145.18;100.00;47379.28;4951436;28;20353;-61
2022/03/02 10:10:36;;;;;;;23.27;13.17;;;;;;;-145.18;100.00;47385.16;4952095;28;20274;-61
2022/03/02 10:13:11;;;;;;;23.20;12.60;;;;;;;-145.18;100.00;47379.28;4951252;28;20321;-61
2022/03/02 10:15:39;;;;;;;24.23;12.40;;;;;;;-145.18;100.00;47377.34;4951946;28;20281;-61
2022/03/02 10:18:07;;;;;;;26.63;12.60;;;;;;;-145.18;100.00;47367.56;4951274;28;20265;-61
2022/03/02 10:20:38;;;;;;;23.67;13.53;;;;;;;-145.18;100.00;47361.72;4951775;28;20290;-61
2022/03/02 10:23:33;;;;;;;22.13;12.53;;;;;;;-145.18;100.00;47396.88;4951404;28;20312;-61
2022/03/02 10:26:16;;;;;;;25.30;14.60;;;;;;;-145.18;100.00;47371.47;4951411;28;20270;-60
2022/03/02 10:29:06;;;;;;;23.23;13.20;;;;;;;-145.18;100.00;47383.19;4950967;28;20400;-61
2022/03/02 10:31:48;;;;;;;26.10;13.70;;;;;;;-145.18;100.00;47373.44;4951701;28;20749;-61
2022/03/02 10:34:33;;;;;;;28.07;13.37;;;;;;;-145.18;100.00;47367.56;4951106;28;20277;-61
2022/03/02 10:37:24;;;;;;;29.57;13.37;;;;;;;-145.18;100.00;47357.78;4951683;28;20265;-60
2022/03/02 10:40:15;;;;;;;23.97;14.23;;;;;;;-145.18;100.00;47367.56;4951011;28;20277;-61
2022/03/02 10:42:44;;;;;;;28.53;13.53;;;;;;;-145.18;100.00;47359.75;4934356;29;20604;-63
2022/03/02 10:45:10;;;;;;;25.83;13.50;;;;;;;-145.18;100.00;47351.94;4950848;28;20754;-62
2022/03/02 10:47:52;;;;;;;23.73;13.37;;;;;;;-145.18;100.00;47353.88;4951158;28;20292;-63
2022/03/02 10:50:19;;;;;;;22.47;13.57;;;;;;;-145.18;100.00;47349.97;4950750;28;20039;-63
2022/03/02 10:52:47;;;;;;;22.83;14.20;;;;;;;-145.18;100.00;47357.78;4951220;28;20623;-62
2022/03/02 10:55:13;;;;;;;27.67;14.07;;;;;;;-145.18;100.00;47355.84;4950631;28;20269;-63
2022/03/02 10:57:40;;;;;;;26.67;13.67;;;;;;;-145.18;100.00;47348.03;4951163;28;20360;-62